Time;durP1;ratioP1;P1;durP2;ratioP2;P2;SDS_P1;SDS_P2;PMS_P1;PMS_P2;Temp;Humidity;BMP_temperature;BMP_pressure;BME280_temperature;BME280_humidity;BME280_pressure;Samples;Min_cycle;Max_cycle;Signal;HPM_P1;HPM_P2
2023/12/30 00:00:25;;;;;;;1.17;0.50;;;6.90;99.90;;;;;;4940458;28;20294;-58
2023/12/30 00:02:51;;;;;;;0.83;0.83;;;6.90;99.90;;;;;;4958156;28;20229;-58
2023/12/30 00:05:17;;;;;;;0.40;0.40;;;7.00;99.90;;;;;;4960884;28;20629;-56
2023/12/30 00:07:44;;;;;;;0.40;0.40;;;7.00;99.90;;;;;;4950069;28;20323;-56
2023/12/30 00:10:10;;;;;;;0.50;0.50;;;7.00;99.90;;;;;;4953755;28;20743;-57
2023/12/30 00:12:36;;;;;;;0.93;0.87;;;6.90;99.90;;;;;;4955418;28;20209;-57
2023/12/30 00:15:02;;;;;;;0.93;0.77;;;7.00;99.90;;;;;;4952405;28;20289;-57
2023/12/30 00:17:28;;;;;;;0.60;0.60;;;7.00;99.90;;;;;;4952604;28;20410;-57
2023/12/30 00:19:53;;;;;;;0.67;0.60;;;7.00;99.90;;;;;;4951691;28;20269;-57
2023/12/30 00:22:19;;;;;;;4.07;0.63;;;7.00;99.90;;;;;;4958358;28;20216;-57
2023/12/30 00:24:44;;;;;;;0.60;0.40;;;7.10;99.90;;;;;;4958028;28;20210;-57
2023/12/30 00:27:10;;;;;;;1.93;0.70;;;7.10;99.90;;;;;;4954432;28;20685;-56
2023/12/30 00:29:39;;;;;;;2.13;0.50;;;7.20;99.90;;;;;;4952533;28;20886;-56
2023/12/30 00:32:06;;;;;;;0.50;0.50;;;7.30;99.90;;;;;;4952391;28;20209;-57
2023/12/30 00:34:34;;;;;;;0.60;0.60;;;7.30;99.90;;;;;;4952120;28;20297;-56
2023/12/30 00:37:00;;;;;;;2.20;0.70;;;7.30;99.90;;;;;;4952016;28;20759;-57
2023/12/30 00:39:26;;;;;;;0.40;0.40;;;7.20;99.90;;;;;;4959865;28;20279;-55
2023/12/30 00:41:51;;;;;;;0.50;0.50;;;7.10;99.90;;;;;;4953732;28;20556;-55
2023/12/30 00:44:17;;;;;;;0.83;0.60;;;7.10;99.90;;;;;;4960184;28;20210;-55
2023/12/30 00:46:43;;;;;;;1.40;0.70;;;7.10;99.90;;;;;;4956414;28;20565;-55
2023/12/30 00:49:09;;;;;;;1.37;0.73;;;7.20;99.90;;;;;;4960787;28;20216;-57
2023/12/30 00:51:35;;;;;;;1.80;0.53;;;7.10;99.90;;;;;;4968908;28;20305;-57
2023/12/30 00:54:01;;;;;;;0.73;0.60;;;7.20;99.90;;;;;;4977571;28;20277;-57
2023/12/30 00:56:27;;;;;;;1.27;0.90;;;7.20;99.90;;;;;;4950018;28;20613;-58
2023/12/30 00:58:52;;;;;;;0.70;0.70;;;7.20;99.90;;;;;;4954095;28;20209;-80
2023/12/30 01:01:18;;;;;;;2.20;1.13;;;7.20;99.90;;;;;;4950925;28;20731;-68
2023/12/30 01:03:43;;;;;;;2.70;1.40;;;7.20;99.90;;;;;;4952477;28;20265;-69
2023/12/30 01:06:09;;;;;;;1.37;1.27;;;7.30;99.90;;;;;;4957764;28;20236;-57
2023/12/30 01:08:35;;;;;;;3.63;1.20;;;7.30;99.90;;;;;;4958060;28;20237;-71
2023/12/30 01:11:00;;;;;;;1.83;1.20;;;7.30;99.90;;;;;;4935844;28;20363;-58
2023/12/30 01:13:26;;;;;;;2.50;1.30;;;7.30;99.90;;;;;;4957413;28;20266;-56
2023/12/30 01:15:51;;;;;;;2.40;1.33;;;7.40;99.90;;;;;;4955416;28;20236;-58
2023/12/30 01:18:17;;;;;;;1.30;1.20;;;7.40;99.90;;;;;;4955779;28;21077;-57
2023/12/30 01:20:42;;;;;;;2.67;1.20;;;7.40;99.90;;;;;;4955498;28;20198;-56
2023/12/30 01:23:08;;;;;;;5.73;2.60;;;7.30;99.90;;;;;;4955245;28;20209;-58
2023/12/30 01:25:33;;;;;;;0.83;0.83;;;7.90;99.90;;;;;;4952285;28;20253;-58
2023/12/30 01:27:59;;;;;;;4.10;1.10;;;7.60;99.90;;;;;;4937015;28;21034;-59
2023/12/30 01:30:27;;;;;;;0.73;0.70;;;7.90;99.90;;;;;;5023398;23;20685;-59
2023/12/30 01:32:54;;;;;;;1.73;0.90;;;7.70;99.90;;;;;;4960713;28;20552;-59
2023/12/30 01:35:19;;;;;;;3.17;0.90;;;7.60;99.90;;;;;;4957594;28;20259;-70
2023/12/30 01:37:45;;;;;;;0.53;0.50;;;7.60;99.90;;;;;;4955714;28;20213;-67
2023/12/30 01:40:11;;;;;;;0.50;0.50;;;7.50;99.90;;;;;;4955412;28;20206;-59
2023/12/30 01:42:40;;;;;;;0.60;0.60;;;7.40;99.90;;;;;;4949820;28;20198;-57
2023/12/30 01:45:06;;;;;;;2.20;0.80;;;7.30;99.90;;;;;;4948740;28;20230;-56
2023/12/30 01:47:31;;;;;;;0.83;0.57;;;7.30;99.90;;;;;;4951520;28;20615;-58
2023/12/30 01:49:57;;;;;;;1.60;1.40;;;7.40;99.90;;;;;;4945029;28;20229;-58
2023/12/30 01:52:23;;;;;;;1.00;0.60;;;7.30;99.90;;;;;;4948989;28;20621;-59
2023/12/30 01:54:49;;;;;;;4.43;1.20;;;7.30;99.90;;;;;;4944455;28;20210;-56
2023/12/30 01:57:15;;;;;;;2.37;0.83;;;7.30;99.90;;;;;;4943192;28;20203;-56
2023/12/30 01:59:40;;;;;;;1.80;0.70;;;7.40;99.90;;;;;;4940052;28;20205;-56
2023/12/30 02:02:06;;;;;;;0.70;0.70;;;7.40;99.90;;;;;;4943071;28;20200;-58
2023/12/30 02:04:31;;;;;;;1.67;1.10;;;7.40;99.90;;;;;;4944674;28;20570;-57
2023/12/30 02:06:57;;;;;;;3.53;1.10;;;7.50;99.90;;;;;;5035841;28;20206;-57
2023/12/30 02:09:23;;;;;;;1.50;1.40;;;7.50;99.90;;;;;;4935939;28;20582;-57
2023/12/30 02:11:48;;;;;;;3.30;1.80;;;7.50;99.90;;;;;;4938708;28;20206;-57
2023/12/30 02:14:27;;;;;;;1.43;1.07;;;7.60;99.90;;;;;;4934996;28;20361;-57
2023/12/30 02:16:53;;;;;;;2.70;1.17;;;7.60;99.90;;;;;;4934273;28;20728;-56
2023/12/30 02:19:19;;;;;;;2.43;1.13;;;7.60;99.90;;;;;;4935949;28;20289;-56
2023/12/30 02:21:45;;;;;;;1.90;0.87;;;7.60;99.90;;;;;;4935486;28;20202;-56
2023/12/30 02:24:10;;;;;;;3.40;2.30;;;7.60;99.90;;;;;;5036978;28;20213;-57
2023/12/30 02:26:36;;;;;;;4.03;1.63;;;7.60;99.90;;;;;;4939374;28;20205;-56
2023/12/30 02:29:02;;;;;;;7.33;1.53;;;7.60;99.90;;;;;;4937136;28;20558;-57
2023/12/30 02:31:27;;;;;;;5.97;1.47;;;7.60;99.90;;;;;;4935484;28;20776;-56
2023/12/30 02:33:53;;;;;;;1.13;1.00;;;7.70;99.90;;;;;;4938188;28;20237;-56
2023/12/30 02:36:18;;;;;;;2.73;1.40;;;7.60;99.90;;;;;;4936854;28;20220;-56
2023/12/30 02:38:44;;;;;;;2.70;0.97;;;7.60;99.90;;;;;;4939152;28;20201;-56
2023/12/30 02:41:09;;;;;;;2.27;1.00;;;7.60;99.90;;;;;;4936014;28;20210;-56
2023/12/30 02:43:48;;;;;;;1.00;0.90;;;7.60;99.90;;;;;;5037544;28;20204;-56
2023/12/30 02:46:14;;;;;;;2.37;1.23;;;7.70;99.90;;;;;;4937849;28;20206;-56
2023/12/30 02:48:39;;;;;;;1.13;0.77;;;7.70;99.90;;;;;;4929274;28;20206;-56
2023/12/30 02:51:05;;;;;;;2.03;1.00;;;7.70;99.90;;;;;;4930452;28;20230;-56
2023/12/30 02:53:30;;;;;;;1.77;1.00;;;7.70;99.90;;;;;;4936524;28;20555;-57
2023/12/30 02:55:56;;;;;;;1.40;0.70;;;7.60;99.90;;;;;;4935377;28;20213;-57
2023/12/30 02:58:21;;;;;;;2.33;0.80;;;7.70;99.90;;;;;;4938730;28;20286;-56
2023/12/30 03:00:47;;;;;;;2.67;1.00;;;7.70;99.90;;;;;;4935274;28;20332;-56
2023/12/30 03:03:12;;;;;;;2.37;0.60;;;7.60;99.90;;;;;;4938565;28;20212;-56
2023/12/30 03:05:38;;;;;;;1.57;0.90;;;7.70;99.90;;;;;;4935316;28;20202;-56
2023/12/30 03:08:03;;;;;;;2.57;0.80;;;7.70;99.90;;;;;;4938679;28;20287;-56
2023/12/30 03:10:29;;;;;;;3.07;0.70;;;7.70;99.90;;;;;;4942795;28;20225;-56
2023/12/30 03:12:54;;;;;;;2.00;0.50;;;7.70;99.90;;;;;;4938277;28;20209;-56
2023/12/30 03:15:20;;;;;;;2.10;0.90;;;7.80;99.90;;;;;;4942248;28;20201;-56
2023/12/30 03:17:45;;;;;;;0.57;0.57;;;7.70;99.90;;;;;;4942045;28;20267;-56
2023/12/30 03:20:11;;;;;;;0.80;0.80;;;7.70;99.90;;;;;;4938956;28;20680;-56
2023/12/30 03:22:36;;;;;;;1.07;0.80;;;7.70;99.90;;;;;;4940045;28;20199;-56
2023/12/30 03:25:02;;;;;;;2.20;0.87;;;7.60;99.90;;;;;;4941597;28;20268;-57
2023/12/30 03:27:27;;;;;;;3.10;1.00;;;7.60;99.90;;;;;;4940440;28;20218;-56
2023/12/30 03:29:53;;;;;;;0.50;0.50;;;7.70;99.90;;;;;;4938966;28;20222;-57
2023/12/30 03:32:18;;;;;;;1.00;0.60;;;7.70;99.90;;;;;;4940094;28;20610;-57
2023/12/30 03:34:44;;;;;;;2.00;0.60;;;7.70;99.90;;;;;;4942522;28;20687;-56
2023/12/30 03:37:09;;;;;;;0.67;0.67;;;7.70;99.90;;;;;;4936789;28;20223;-56
2023/12/30 03:39:35;;;;;;;0.80;0.80;;;7.70;99.90;;;;;;4938340;28;20229;-57
2023/12/30 03:42:00;;;;;;;2.13;0.50;;;7.60;99.90;;;;;;4939198;28;20198;-56
2023/12/30 03:44:26;;;;;;;4.77;0.90;;;7.60;99.90;;;;;;4941637;28;20639;-56
2023/12/30 03:46:51;;;;;;;0.70;0.63;;;7.60;99.90;;;;;;4938743;28;20761;-57
2023/12/30 03:49:17;;;;;;;0.80;0.40;;;7.60;99.90;;;;;;4938347;28;20279;-57
2023/12/30 03:51:42;;;;;;;0.67;0.43;;;7.60;99.90;;;;;;4932997;28;20257;-55
2023/12/30 03:54:08;;;;;;;1.27;0.80;;;7.60;99.90;;;;;;4931984;29;20210;-56
2023/12/30 03:56:39;;;;;;;2.93;0.60;;;7.60;99.90;;;;;;4934053;29;20202;-55
2023/12/30 03:59:04;;;;;;;1.07;0.83;;;7.50;99.90;;;;;;4933522;28;20206;-57
2023/12/30 04:01:30;;;;;;;1.73;0.90;;;7.50;99.90;;;;;;4934057;28;20221;-56
2023/12/30 04:03:55;;;;;;;4.63;0.93;;;7.50;99.90;;;;;;4933820;29;20321;-55
2023/12/30 04:06:21;;;;;;;1.70;0.70;;;7.50;99.90;;;;;;4933375;28;20616;-56
2023/12/30 04:08:47;;;;;;;0.50;0.50;;;7.50;99.90;;;;;;4937618;28;20286;-56
2023/12/30 04:11:12;;;;;;;0.97;0.50;;;7.50;99.90;;;;;;4941546;28;20230;-55
2023/12/30 04:13:38;;;;;;;0.80;0.80;;;7.60;99.90;;;;;;4938244;28;20202;-55
2023/12/30 04:16:04;;;;;;;0.53;0.53;;;7.50;99.90;;;;;;4941173;28;20205;-56
2023/12/30 04:18:29;;;;;;;1.37;0.90;;;7.50;99.90;;;;;;4938113;28;20607;-55
2023/12/30 04:20:55;;;;;;;2.00;0.70;;;7.50;99.90;;;;;;4937553;28;21151;-66
2023/12/30 04:23:20;;;;;;;1.17;0.80;;;7.50;99.90;;;;;;4942054;28;20274;-56
2023/12/30 04:25:46;;;;;;;2.13;0.57;;;7.50;99.90;;;;;;4939080;28;20205;-56
2023/12/30 04:28:11;;;;;;;0.80;0.73;;;7.50;99.90;;;;;;4933521;28;20581;-55
2023/12/30 04:30:37;;;;;;;1.60;0.73;;;7.50;99.90;;;;;;4936764;28;20242;-56
2023/12/30 04:33:02;;;;;;;0.90;0.90;;;7.50;99.90;;;;;;4931447;28;20257;-56
2023/12/30 04:35:28;;;;;;;0.70;0.60;;;7.40;99.90;;;;;;4932864;28;20709;-55
2023/12/30 04:37:53;;;;;;;1.40;0.60;;;7.40;99.90;;;;;;4933033;29;20214;-55
2023/12/30 04:40:19;;;;;;;1.13;0.60;;;7.30;99.90;;;;;;4934938;28;20304;-55
2023/12/30 04:42:44;;;;;;;0.87;0.73;;;7.30;99.90;;;;;;4933128;29;20692;-55
2023/12/30 04:45:12;;;;;;;0.40;0.40;;;7.30;99.90;;;;;;4931785;28;20253;-55
2023/12/30 04:47:39;;;;;;;0.40;0.40;;;7.30;99.90;;;;;;4933084;28;20209;-55
2023/12/30 04:50:05;;;;;;;0.53;0.50;;;7.30;99.90;;;;;;4928714;29;20229;-55
2023/12/30 04:52:30;;;;;;;0.83;0.73;;;7.30;99.90;;;;;;4931400;28;20586;-58
2023/12/30 04:54:56;;;;;;;0.57;0.57;;;7.30;99.90;;;;;;4934477;28;20213;-55
2023/12/30 04:57:21;;;;;;;0.77;0.50;;;7.20;99.90;;;;;;4939635;28;20569;-56
2023/12/30 04:59:47;;;;;;;1.80;0.60;;;7.20;99.90;;;;;;4933312;28;20206;-55
2023/12/30 05:02:12;;;;;;;0.60;0.40;;;7.20;99.90;;;;;;4935254;28;20205;-56
2023/12/30 05:04:40;;;;;;;2.30;0.80;;;7.30;99.90;;;;;;4935981;28;20259;-56
2023/12/30 05:07:06;;;;;;;1.17;0.80;;;7.10;99.90;;;;;;4935708;28;20286;-56
2023/12/30 05:09:35;;;;;;;0.80;0.60;;;7.10;99.90;;;;;;4938515;28;20298;-56
2023/12/30 05:12:00;;;;;;;0.53;0.53;;;7.00;99.90;;;;;;4945426;28;20202;-56
2023/12/30 05:14:26;;;;;;;2.10;0.60;;;7.10;99.90;;;;;;4939932;28;20931;-56
2023/12/30 05:16:51;;;;;;;0.93;0.57;;;7.10;99.90;;;;;;4936845;28;20202;-56
2023/12/30 05:19:17;;;;;;;1.03;0.80;;;7.10;99.90;;;;;;4937341;28;20692;-56
2023/12/30 05:21:43;;;;;;;1.33;0.77;;;7.10;99.90;;;;;;4936280;28;20730;-56
2023/12/30 05:24:08;;;;;;;2.73;0.57;;;7.10;99.90;;;;;;4938299;28;20399;-56
2023/12/30 05:26:34;;;;;;;1.70;0.43;;;7.20;99.90;;;;;;4940215;28;20256;-56
2023/12/30 05:29:00;;;;;;;2.20;0.97;;;7.20;99.90;;;;;;4932538;28;20214;-56
2023/12/30 05:31:25;;;;;;;1.13;0.87;;;7.20;99.90;;;;;;4931221;28;21056;-57
2023/12/30 05:33:51;;;;;;;1.63;0.70;;;7.10;99.90;;;;;;4930712;28;20732;-57
2023/12/30 05:36:16;;;;;;;2.70;0.70;;;7.20;99.90;;;;;;4936568;28;20203;-66
2023/12/30 05:38:42;;;;;;;1.40;0.30;;;7.20;99.90;;;;;;4930785;28;20205;-56
2023/12/30 05:41:07;;;;;;;2.93;0.57;;;7.20;99.90;;;;;;4936456;28;20213;-57
2023/12/30 05:43:33;;;;;;;1.10;0.70;;;7.30;99.90;;;;;;4943666;28;20205;-56
2023/12/30 05:45:58;;;;;;;1.20;1.00;;;7.10;99.90;;;;;;4932752;28;20876;-56
2023/12/30 05:48:24;;;;;;;0.83;0.50;;;7.20;99.90;;;;;;4931516;29;20198;-57
2023/12/30 05:50:49;;;;;;;0.90;0.90;;;7.20;99.90;;;;;;4928072;28;20232;-56
2023/12/30 05:53:15;;;;;;;0.57;0.57;;;7.20;99.90;;;;;;4937414;28;20253;-56
2023/12/30 05:55:40;;;;;;;1.00;0.60;;;7.20;99.90;;;;;;4935928;28;20687;-56
2023/12/30 05:58:06;;;;;;;0.50;0.50;;;7.20;99.90;;;;;;4939092;28;20957;-56
2023/12/30 06:00:32;;;;;;;1.17;0.40;;;7.20;99.90;;;;;;4937539;28;20206;-56
2023/12/30 06:02:58;;;;;;;1.97;0.60;;;7.10;99.90;;;;;;4935715;28;20663;-56
2023/12/30 06:05:23;;;;;;;1.10;0.60;;;7.00;99.90;;;;;;4939440;28;20603;-56
2023/12/30 06:07:49;;;;;;;0.90;0.70;;;7.00;99.90;;;;;;4931906;28;20190;-55
2023/12/30 06:10:14;;;;;;;4.23;1.07;;;7.00;99.90;;;;;;4932696;28;20230;-56
2023/12/30 06:12:40;;;;;;;1.90;1.33;;;6.90;99.90;;;;;;4935200;28;20669;-56
2023/12/30 06:15:06;;;;;;;3.30;1.00;;;6.90;99.90;;;;;;4937293;28;20562;-56
2023/12/30 06:17:31;;;;;;;2.40;0.63;;;6.90;99.90;;;;;;4938426;28;20212;-56
2023/12/30 06:19:57;;;;;;;1.20;0.73;;;6.90;99.90;;;;;;5030457;28;20214;-55
2023/12/30 06:22:22;;;;;;;0.67;0.60;;;6.80;99.90;;;;;;4934670;28;20202;-55
2023/12/30 06:24:48;;;;;;;2.90;0.70;;;6.80;99.90;;;;;;4937922;28;20253;-55
2023/12/30 06:27:13;;;;;;;0.73;0.73;;;6.70;99.90;;;;;;4935658;28;20205;-55
2023/12/30 06:29:39;;;;;;;1.83;0.77;;;6.70;99.90;;;;;;4940046;28;20213;-55
2023/12/30 06:32:06;;;;;;;3.33;1.00;;;6.60;99.90;;;;;;4936306;28;20226;-56
2023/12/30 06:34:32;;;;;;;3.10;1.17;;;6.60;99.90;;;;;;4935715;28;20664;-55
2023/12/30 06:36:58;;;;;;;0.90;0.63;;;6.50;99.90;;;;;;4939199;28;20275;-55
2023/12/30 06:39:23;;;;;;;2.77;0.73;;;6.50;99.90;;;;;;4937925;28;20664;-56
2023/12/30 06:41:49;;;;;;;1.60;0.83;;;6.60;99.90;;;;;;4935138;28;20619;-56
2023/12/30 06:44:14;;;;;;;1.37;0.60;;;6.60;99.90;;;;;;4939579;28;20202;-56
2023/12/30 06:46:40;;;;;;;1.07;0.70;;;6.60;99.90;;;;;;4932603;28;20205;-56
2023/12/30 06:49:06;;;;;;;6.90;1.10;;;6.60;99.90;;;;;;4936332;28;20198;-56
2023/12/30 06:51:31;;;;;;;2.10;0.70;;;6.50;99.90;;;;;;4936198;28;20263;-56
2023/12/30 06:53:57;;;;;;;1.53;0.70;;;6.40;99.90;;;;;;4941720;28;20646;-56
2023/12/30 06:56:22;;;;;;;0.70;0.70;;;6.40;99.90;;;;;;4938207;28;20212;-56
2023/12/30 06:58:48;;;;;;;2.57;0.77;;;6.40;99.90;;;;;;4940335;28;20787;-56
2023/12/30 07:01:14;;;;;;;1.57;1.10;;;6.40;99.90;;;;;;4936212;28;20202;-56
2023/12/30 07:03:40;;;;;;;3.50;0.67;;;6.30;99.90;;;;;;4937735;28;20214;-56
2023/12/30 07:06:06;;;;;;;4.50;1.10;;;6.40;99.90;;;;;;4941534;28;20283;-55
2023/12/30 07:08:32;;;;;;;2.60;0.80;;;6.40;99.90;;;;;;4939711;28;20569;-65
2023/12/30 07:10:57;;;;;;;2.33;0.93;;;6.50;99.90;;;;;;5038731;28;20879;-64
2023/12/30 07:13:23;;;;;;;1.23;1.00;;;6.40;99.90;;;;;;4942273;28;20197;-56
2023/12/30 07:15:50;;;;;;;3.40;0.93;;;6.40;99.90;;;;;;4946763;28;21024;-57
2023/12/30 07:18:16;;;;;;;4.33;0.87;;;6.40;99.90;;;;;;4938099;28;20198;-57
2023/12/30 07:20:42;;;;;;;0.83;0.80;;;6.50;99.90;;;;;;4940318;28;20748;-54
2023/12/30 07:23:07;;;;;;;3.80;0.90;;;6.40;99.90;;;;;;4939272;28;20329;-54
2023/12/30 07:25:33;;;;;;;0.80;0.70;;;6.40;99.90;;;;;;5039095;28;20209;-54
2023/12/30 07:27:58;;;;;;;3.10;0.90;;;6.40;99.90;;;;;;4940925;28;20672;-56
2023/12/30 07:30:24;;;;;;;4.97;1.07;;;6.40;99.90;;;;;;4937388;28;21038;-56
2023/12/30 07:32:49;;;;;;;2.30;0.97;;;6.40;99.90;;;;;;4934060;28;20256;-57
2023/12/30 07:35:15;;;;;;;1.97;1.03;;;6.40;99.90;;;;;;4941849;28;20210;-56
2023/12/30 07:37:41;;;;;;;1.80;1.07;;;6.40;99.90;;;;;;4939767;28;20557;-56
2023/12/30 07:40:07;;;;;;;1.57;0.90;;;6.50;99.90;;;;;;4938717;28;20217;-56
2023/12/30 07:42:32;;;;;;;1.27;0.90;;;6.50;99.90;;;;;;4937863;28;20230;-55
2023/12/30 07:44:58;;;;;;;2.30;1.53;;;6.50;99.90;;;;;;4941075;28;20254;-54
2023/12/30 07:47:25;;;;;;;1.87;0.80;;;6.50;99.90;;;;;;4938237;28;20213;-56
2023/12/30 07:49:51;;;;;;;0.90;0.60;;;6.50;99.90;;;;;;4929285;28;20742;-55
2023/12/30 07:52:16;;;;;;;0.60;0.60;;;6.40;99.90;;;;;;4939607;28;20236;-56
2023/12/30 07:54:42;;;;;;;2.37;1.17;;;6.40;99.90;;;;;;4938618;28;20682;-55
2023/12/30 07:57:07;;;;;;;3.67;1.43;;;6.50;99.90;;;;;;4936372;28;20218;-56
2023/12/30 07:59:33;;;;;;;5.73;1.20;;;6.50;99.90;;;;;;4941260;28;20251;-55
2023/12/30 08:01:58;;;;;;;5.80;1.33;;;6.50;99.90;;;;;;4941395;28;20978;-64
2023/12/30 08:04:24;;;;;;;2.50;1.40;;;6.40;99.90;;;;;;4942170;28;20288;-56
2023/12/30 08:06:50;;;;;;;4.33;1.50;;;6.40;99.90;;;;;;4940097;28;20733;-55
2023/12/30 08:09:15;;;;;;;1.70;0.63;;;6.40;99.90;;;;;;4941380;28;20205;-55
2023/12/30 08:11:42;;;;;;;1.63;0.67;;;6.40;99.90;;;;;;4946722;28;20226;-56
2023/12/30 08:14:08;;;;;;;2.40;1.10;;;6.40;99.90;;;;;;4942712;28;20208;-54
2023/12/30 08:16:35;;;;;;;5.33;0.90;;;6.40;99.90;;;;;;4937217;28;20206;-54
2023/12/30 08:19:02;;;;;;;4.83;1.33;;;6.40;99.90;;;;;;4939568;28;20276;-55
2023/12/30 08:21:28;;;;;;;2.87;1.77;;;6.50;99.90;;;;;;4940508;28;20206;-55
2023/12/30 08:23:54;;;;;;;1.83;1.10;;;6.50;99.90;;;;;;4934493;28;20241;-54
2023/12/30 08:26:20;;;;;;;2.73;1.37;;;6.40;99.90;;;;;;4940579;28;20209;-54
2023/12/30 08:28:46;;;;;;;2.37;1.07;;;6.50;99.90;;;;;;4938591;28;20202;-54
2023/12/30 08:31:11;;;;;;;6.27;1.00;;;6.40;99.90;;;;;;4934555;28;20248;-54
2023/12/30 08:33:37;;;;;;;3.40;0.77;;;6.50;99.90;;;;;;4939096;28;20264;-54
2023/12/30 08:36:02;;;;;;;1.90;1.67;;;6.40;99.90;;;;;;4940099;28;20218;-55
2023/12/30 08:38:31;;;;;;;3.30;1.20;;;6.30;99.90;;;;;;4937501;28;20209;-54
2023/12/30 08:40:57;;;;;;;1.33;1.10;;;6.40;99.90;;;;;;4941315;28;20275;-54
2023/12/30 08:43:23;;;;;;;2.77;0.93;;;6.40;99.90;;;;;;4940740;28;20685;-54
2023/12/30 08:45:48;;;;;;;2.10;1.17;;;6.40;99.90;;;;;;4936185;28;20214;-55
2023/12/30 08:48:14;;;;;;;2.63;1.17;;;6.50;99.90;;;;;;4939997;28;20309;-54
2023/12/30 08:50:40;;;;;;;6.27;1.10;;;6.50;99.90;;;;;;4936672;28;20790;-54
2023/12/30 08:53:06;;;;;;;1.80;0.57;;;6.40;99.90;;;;;;4935043;28;20210;-54
2023/12/30 08:55:32;;;;;;;4.03;1.17;;;6.50;99.90;;;;;;5038469;28;20195;-55
2023/12/30 08:57:58;;;;;;;6.33;1.70;;;6.60;99.90;;;;;;4942145;28;20244;-54
2023/12/30 09:00:23;;;;;;;1.73;1.00;;;6.60;99.90;;;;;;5036906;28;20902;-55
2023/12/30 09:02:49;;;;;;;6.23;1.60;;;6.50;99.90;;;;;;4939958;28;20250;-55
2023/12/30 09:05:18;;;;;;;2.60;1.03;;;6.60;99.90;;;;;;4937189;28;20210;-55
2023/12/30 09:07:45;;;;;;;2.97;1.23;;;6.60;99.90;;;;;;4938215;28;20190;-54
2023/12/30 09:10:11;;;;;;;1.20;1.10;;;6.70;99.90;;;;;;4932713;28;20229;-54
2023/12/30 09:12:36;;;;;;;3.57;1.47;;;6.70;99.90;;;;;;4931885;28;20558;-54
2023/12/30 09:15:02;;;;;;;4.00;1.37;;;6.60;99.90;;;;;;4938102;29;20206;-54
2023/12/30 09:17:28;;;;;;;1.50;1.00;;;6.60;99.90;;;;;;4939954;29;20202;-54
2023/12/30 09:19:54;;;;;;;1.90;0.83;;;6.60;99.90;;;;;;4941270;29;20209;-54
2023/12/30 09:22:19;;;;;;;4.40;1.10;;;6.60;99.90;;;;;;4948217;28;20565;-54
2023/12/30 09:24:45;;;;;;;2.90;1.23;;;6.70;99.90;;;;;;4947697;28;20205;-54
2023/12/30 09:27:11;;;;;;;3.90;1.43;;;6.70;99.90;;;;;;4948873;28;20193;-54
2023/12/30 09:29:36;;;;;;;3.30;1.40;;;6.70;99.90;;;;;;4942242;28;20217;-55
2023/12/30 09:32:02;;;;;;;3.13;1.20;;;6.80;99.90;;;;;;4941159;29;20222;-55
2023/12/30 09:34:28;;;;;;;3.47;1.03;;;6.80;99.90;;;;;;4945154;28;20206;-55
2023/12/30 09:36:54;;;;;;;3.60;1.27;;;6.80;99.90;;;;;;4939749;28;20687;-55
2023/12/30 09:39:19;;;;;;;5.83;1.23;;;6.80;99.90;;;;;;4940836;29;20631;-55
2023/12/30 09:41:45;;;;;;;1.90;0.97;;;6.80;99.90;;;;;;4941272;29;20692;-55
2023/12/30 09:44:12;;;;;;;3.70;1.10;;;6.80;99.90;;;;;;4948212;28;20284;-55
2023/12/30 09:46:39;;;;;;;3.83;1.37;;;6.80;99.90;;;;;;4950762;28;20197;-54
2023/12/30 09:49:06;;;;;;;4.77;1.33;;;6.80;99.90;;;;;;4942494;28;20297;-54
2023/12/30 09:51:33;;;;;;;2.20;1.23;;;6.90;99.90;;;;;;4939605;29;20210;-54
2023/12/30 09:53:58;;;;;;;3.27;1.23;;;6.80;99.90;;;;;;4948066;28;20297;-55
2023/12/30 09:56:25;;;;;;;5.73;1.70;;;6.70;99.90;;;;;;4941852;29;20270;-55
2023/12/30 09:58:53;;;;;;;1.80;1.20;;;6.80;99.90;;;;;;4939750;29;20221;-55
2023/12/30 10:01:20;;;;;;;2.17;1.20;;;6.80;99.90;;;;;;4947689;28;20711;-56
2023/12/30 10:03:46;;;;;;;2.93;1.47;;;6.90;99.90;;;;;;4945655;28;20204;-55
2023/12/30 10:06:17;;;;;;;5.37;1.67;;;6.80;99.90;;;;;;4946492;28;20300;-64
2023/12/30 10:08:43;;;;;;;4.27;1.73;;;6.90;99.90;;;;;;4926922;29;20198;-56
2023/12/30 10:11:09;;;;;;;5.53;1.40;;;6.90;99.90;;;;;;4942234;28;20214;-55
2023/12/30 10:13:36;;;;;;;6.43;2.57;;;6.90;99.90;;;;;;5039016;28;20762;-56
2023/12/30 10:16:05;;;;;;;2.53;1.37;;;6.90;99.90;;;;;;4953399;28;20189;-55
2023/12/30 10:18:31;;;;;;;6.90;1.87;;;7.00;99.90;;;;;;4944857;28;20236;-55
2023/12/30 10:20:58;;;;;;;6.53;1.77;;;7.10;99.90;;;;;;4947040;28;20190;-57
2023/12/30 10:23:26;;;;;;;5.47;2.00;;;7.10;99.90;;;;;;4947582;28;20293;-54
2023/12/30 10:25:52;;;;;;;2.10;1.33;;;7.00;99.90;;;;;;4949370;28;20194;-55
2023/12/30 10:28:18;;;;;;;3.10;1.50;;;7.20;99.90;;;;;;5040591;28;20204;-57
2023/12/30 10:30:43;;;;;;;3.50;1.17;;;7.20;99.90;;;;;;4945403;28;20364;-57
2023/12/30 10:33:11;;;;;;;6.10;2.07;;;7.20;99.90;;;;;;4938908;29;20201;-55
2023/12/30 10:35:41;;;;;;;1.63;1.20;;;7.20;99.90;;;;;;4941809;29;20174;-57
2023/12/30 10:38:12;;;;;;;7.47;1.87;;;7.10;99.90;;;;;;4940250;29;20898;-54
2023/12/30 10:40:39;;;;;;;2.83;1.87;;;7.30;99.90;;;;;;4953300;28;20937;-55
2023/12/30 10:43:05;;;;;;;4.90;1.80;;;7.30;99.90;;;;;;4946217;28;20304;-55
2023/12/30 10:45:31;;;;;;;3.40;1.50;;;7.20;99.90;;;;;;4944739;28;20845;-56
2023/12/30 10:47:59;;;;;;;6.23;1.70;;;7.20;99.90;;;;;;4939525;28;20201;-55
2023/12/30 10:50:26;;;;;;;3.70;1.40;;;7.40;99.90;;;;;;4930641;28;20699;-55
2023/12/30 10:53:06;;;;;;;4.63;2.40;;;7.40;99.90;;;;;;4935344;28;20202;-55
2023/12/30 10:55:33;;;;;;;5.40;1.50;;;7.50;99.90;;;;;;4933407;28;20277;-62
2023/12/30 10:58:03;;;;;;;3.67;1.27;;;7.40;99.90;;;;;;4938803;28;21271;-63
2023/12/30 11:00:30;;;;;;;4.97;1.40;;;7.60;99.90;;;;;;4940906;28;20664;-62
2023/12/30 11:02:56;;;;;;;6.13;1.60;;;7.80;99.90;;;;;;4942170;28;21345;-57
2023/12/30 11:05:27;;;;;;;4.90;1.73;;;8.10;99.90;;;;;;4934218;28;20213;-56
2023/12/30 11:07:53;;;;;;;10.37;1.77;;;8.30;99.90;;;;;;4933694;28;20565;-56
2023/12/30 11:10:20;;;;;;;6.73;2.23;;;8.20;99.90;;;;;;4935134;28;20222;-56
2023/12/30 11:12:46;;;;;;;4.73;1.63;;;8.30;99.90;;;;;;4941806;28;20285;-55
2023/12/30 11:15:30;;;;;;;7.50;1.57;;;8.30;99.90;;;;;;4939204;28;20248;-56
2023/12/30 11:17:57;;;;;;;4.57;1.37;;;8.30;99.90;;;;;;4923614;28;20198;-60
2023/12/30 11:20:30;;;;;;;5.80;1.47;;;8.10;99.90;;;;;;4935209;28;20218;-56
2023/12/30 11:23:00;;;;;;;5.87;1.93;;;8.20;99.90;;;;;;4940084;28;20209;-67
2023/12/30 11:25:33;;;;;;;11.00;1.87;;;8.10;99.90;;;;;;4936570;28;20339;-65
2023/12/30 11:28:20;;;;;;;4.87;1.37;;;8.20;99.90;;;;;;4934021;28;20676;-62
2023/12/30 11:31:01;;;;;;;2.97;1.73;;;8.20;99.90;;;;;;4939564;28;20234;-74
2023/12/30 11:33:27;;;;;;;5.90;1.60;;;8.10;99.90;;;;;;4939467;28;20288;-68
2023/12/30 11:35:57;;;;;;;5.07;1.53;;;7.90;99.90;;;;;;4936784;29;20253;-60
2023/12/30 11:38:24;;;;;;;5.33;1.73;;;7.90;99.90;;;;;;4939386;28;20206;-56
2023/12/30 11:40:51;;;;;;;6.27;1.73;;;7.80;99.90;;;;;;4938886;28;20197;-67
2023/12/30 11:43:18;;;;;;;5.10;1.60;;;7.80;99.90;;;;;;4937981;28;20294;-56
2023/12/30 11:45:44;;;;;;;1.80;1.23;;;7.80;99.90;;;;;;4937700;28;20209;-56
2023/12/30 11:48:10;;;;;;;2.13;1.30;;;7.80;99.90;;;;;;4942600;28;20216;-56
2023/12/30 11:50:36;;;;;;;5.27;1.77;;;7.80;99.90;;;;;;4936482;28;20217;-56
2023/12/30 11:53:02;;;;;;;4.03;1.87;;;7.80;99.90;;;;;;4938542;28;20224;-73
2023/12/30 11:55:28;;;;;;;3.77;1.93;;;7.80;99.90;;;;;;4933758;28;20195;-57
2023/12/30 11:57:54;;;;;;;4.60;1.70;;;7.80;99.90;;;;;;4937983;28;20250;-66
2023/12/30 12:00:24;;;;;;;2.80;1.53;;;7.90;99.90;;;;;;4940965;28;20198;-71
2023/12/30 12:02:53;;;;;;;4.70;1.77;;;7.90;99.90;;;;;;4931684;28;20225;-69
2023/12/30 12:05:19;;;;;;;6.27;2.10;;;7.90;99.90;;;;;;4940014;28;20289;-70
2023/12/30 12:07:44;;;;;;;3.90;1.83;;;7.90;99.90;;;;;;4938645;28;20723;-57
2023/12/30 12:10:10;;;;;;;3.63;2.10;;;7.70;99.90;;;;;;4940997;28;20265;-56
2023/12/30 12:12:37;;;;;;;2.27;2.00;;;7.80;99.90;;;;;;4940874;28;20189;-56
2023/12/30 12:15:04;;;;;;;5.87;2.20;;;7.80;99.90;;;;;;4937938;28;20296;-56
2023/12/30 12:17:30;;;;;;;4.67;1.93;;;7.90;99.90;;;;;;4937555;28;20214;-56
2023/12/30 12:19:56;;;;;;;5.27;2.07;;;8.10;99.90;;;;;;4939955;28;20225;-56
2023/12/30 12:22:22;;;;;;;5.80;1.80;;;7.90;99.90;;;;;;4942005;28;20952;-56
2023/12/30 12:24:48;;;;;;;3.10;1.73;;;8.00;99.90;;;;;;4938033;28;20707;-56
2023/12/30 12:27:21;;;;;;;4.73;1.70;;;8.20;99.90;;;;;;4940777;28;20226;-62
2023/12/30 12:29:50;;;;;;;4.57;1.67;;;8.00;99.90;;;;;;4940807;28;20255;-62
2023/12/30 12:32:21;;;;;;;5.77;2.57;;;8.20;99.90;;;;;;4935574;28;20233;-66
2023/12/30 12:34:47;;;;;;;4.97;2.67;;;8.30;99.90;;;;;;4942169;28;20317;-66
2023/12/30 12:37:14;;;;;;;4.70;1.50;;;8.20;99.90;;;;;;4938020;28;20874;-65
2023/12/30 12:39:45;;;;;;;4.67;2.07;;;8.30;99.90;;;;;;4938762;28;20224;-63
2023/12/30 12:42:14;;;;;;;4.87;1.87;;;8.30;99.90;;;;;;4945321;28;20214;-65
2023/12/30 12:44:40;;;;;;;6.00;1.73;;;8.10;99.90;;;;;;4980291;28;20465;-58
2023/12/30 12:47:09;;;;;;;4.53;1.77;;;8.10;99.90;;;;;;4991235;28;20693;-56
2023/12/30 12:49:35;;;;;;;7.93;2.00;;;8.30;99.90;;;;;;4987781;28;20286;-56
2023/12/30 12:52:00;;;;;;;8.30;1.87;;;8.20;99.90;;;;;;5041122;28;20534;-57